»·PEaware :: SWA118 KBUR-KLAS

SWA118 :: KBUR-KLAS

FLIGHT INFORMATION

Flight Status: Arrived
Operator:
Southwest Airlines
More flights by this operator :: More flights under this callsign
Pilot: Jacob C. (16006)
Aircraft: BOEING 737-800
(B738)
More flights by this aircraft type
Origin: KBUR Bob Hope-Burbank
United States
Destination: KLAS McCarran Intl
United States
More flights between these airports :: More routes between these airports
Route: +VNY3 DAG MISEN KEPEC4
File this flight plan on PilotEdge
Remarks: I-4
Altitude:
(Current/Filed)
30,000ft
Speed:
(Current/Filed)
464kts
Departed: 28-Jul-17 01:46 PM
Arrived: 28-Jul-17 02:38 PM
Distance/Time
Traveled:
194nm/0:52
Distance/Time
To Go:
Arrived

Flight Plot

Page will automatically refresh every two minutes.

Flight plan parsing failed; only flown route is shown


Map Options




Map Legend


Flown Route
Filed Route
Departure Airport
Arrival Airport
Navaid (VOR, NDB)
Fix

Horizontal Profiles

Position Reports

Time Latitude Longitude Heading Altitude Ground
Speed
28-Jul-17 13:13 34.196764 -118.351462 179 738ft 0kts
28-Jul-17 13:14 34.196764 -118.351462 179 738ft 0kts
28-Jul-17 13:15 34.196764 -118.351462 179 738ft 0kts
28-Jul-17 13:16 34.196764 -118.351462 179 738ft 0kts
28-Jul-17 13:17 34.196764 -118.351462 179 738ft 0kts
28-Jul-17 13:18 34.196764 -118.351462 179 738ft 0kts
28-Jul-17 13:19 34.196764 -118.351462 179 738ft 0kts
28-Jul-17 13:20 34.196764 -118.351462 179 738ft 0kts
28-Jul-17 13:21 34.196764 -118.351462 179 738ft 0kts
28-Jul-17 13:22 34.196764 -118.351462 179 738ft 0kts
28-Jul-17 13:23 34.196764 -118.351462 179 738ft 0kts
28-Jul-17 13:24 34.196764 -118.351462 179 738ft 0kts
28-Jul-17 13:25 34.196764 -118.351462 179 738ft 0kts
28-Jul-17 13:26 34.196764 -118.351462 179 738ft 0kts
28-Jul-17 13:27 34.196764 -118.351462 179 738ft 0kts
28-Jul-17 13:28 34.196764 -118.351462 179 738ft 0kts
28-Jul-17 13:29 34.196764 -118.351462 179 738ft 0kts
28-Jul-17 13:30 34.196764 -118.351462 179 738ft 0kts
28-Jul-17 13:31 34.196764 -118.351462 179 738ft 0kts
28-Jul-17 13:32 34.196764 -118.351462 179 738ft 0kts
28-Jul-17 13:33 34.196764 -118.351462 179 738ft 0kts
28-Jul-17 13:34 34.196764 -118.351462 179 738ft 0kts
28-Jul-17 13:35 34.196764 -118.351462 179 738ft 0kts
28-Jul-17 13:36 34.196764 -118.351462 179 738ft 0kts
28-Jul-17 13:37 34.196764 -118.351462 179 738ft 0kts
28-Jul-17 13:38 34.196764 -118.351462 179 738ft 0kts
28-Jul-17 13:39 34.197121 -118.351325 235 738ft 2kts
28-Jul-17 13:40 34.197181 -118.351096 271 738ft 0kts
28-Jul-17 13:41 34.197181 -118.351096 271 738ft 0kts
28-Jul-17 13:42 34.197181 -118.351096 271 738ft 0kts
28-Jul-17 13:43 34.197176 -118.352524 270 738ft 11kts
28-Jul-17 13:44 34.200014 -118.355755 351 738ft 26kts
28-Jul-17 13:45 34.206300 -118.357429 347 738ft 21kts
28-Jul-17 13:46 34.211585 -118.359031 319 738ft 0kts
28-Jul-17 13:47 34.211596 -118.359043 319 738ft 1kts
28-Jul-17 13:48 34.211159 -118.360150 169 738ft 33kts
28-Jul-17 13:49 34.175135 -118.361414 218 2531ft 187kts
28-Jul-17 13:50 34.137520 -118.408607 225 3997ft 205kts
28-Jul-17 13:51 34.089041 -118.469116 225 4006ft 261kts
28-Jul-17 13:52 34.041753 -118.526775 225 4014ft 260kts
28-Jul-17 13:53 34.051028 -118.599130 331 5740ft 276kts
28-Jul-17 13:54 34.128339 -118.614086 352 9071ft 295kts
28-Jul-17 13:55 34.213133 -118.626621 352 11459ft 338kts
28-Jul-17 13:56 34.299275 -118.637389 6 12971ft 346kts
28-Jul-17 13:57 34.357946 -118.563820 74 13010ft 343kts
28-Jul-17 13:58 34.386782 -118.459711 58 13004ft 342kts
28-Jul-17 13:59 34.442807 -118.365967 54 14872ft 353kts
28-Jul-17 14:00 34.499681 -118.274773 53 17743ft 374kts
28-Jul-17 14:01 34.560939 -118.176790 53 20536ft 392kts
28-Jul-17 14:02 34.623331 -118.071202 68 22979ft 400kts
28-Jul-17 14:03 34.644567 -117.938945 83 24242ft 411kts
28-Jul-17 14:04 34.659730 -117.803899 84 26567ft 425kts
28-Jul-17 14:05 34.688325 -117.670276 74 28696ft 424kts
28-Jul-17 14:06 34.722962 -117.534038 74 29058ft 440kts
28-Jul-17 14:07 34.758418 -117.394667 74 29072ft 466kts
28-Jul-17 14:08 34.794457 -117.252325 74 29059ft 487kts
28-Jul-17 14:09 34.833476 -117.097267 74 29016ft 488kts
28-Jul-17 14:10 34.872039 -116.943352 75 28995ft 483kts
28-Jul-17 14:11 34.910132 -116.789997 75 28993ft 482kts
28-Jul-17 14:12 34.947431 -116.639372 76 28607ft 452kts
28-Jul-17 14:13 35.007729 -116.524474 49 26622ft 424kts
28-Jul-17 14:14 35.083438 -116.427712 48 24606ft 422kts
28-Jul-17 14:15 35.156473 -116.336193 48 24020ft 412kts
28-Jul-17 14:16 35.233078 -116.240122 48 23906ft 415kts
28-Jul-17 14:17 35.308476 -116.145340 48 22139ft 403kts
28-Jul-17 14:18 35.382102 -116.052515 48 20072ft 383kts
28-Jul-17 14:19 35.453198 -115.962613 48 18370ft 373kts
28-Jul-17 14:20 35.507184 -115.894196 48 17114ft 365kts
28-Jul-17 14:21 35.573381 -115.810109 47 15525ft 355kts
28-Jul-17 14:22 35.638804 -115.726818 47 13930ft 324kts
28-Jul-17 14:23 35.695007 -115.655075 47 13072ft 309kts
28-Jul-17 14:24 35.768776 -115.580960 11 13078ft 319kts
28-Jul-17 14:25 35.853735 -115.571104 4 13063ft 320kts
28-Jul-17 14:26 35.926171 -115.566278 3 13045ft 319kts
28-Jul-17 14:27 35.986449 -115.502138 65 13029ft 311kts
28-Jul-17 14:28 36.016273 -115.419052 68 12445ft 282kts
28-Jul-17 14:29 36.026487 -115.332905 94 10692ft 275kts
28-Jul-17 14:30 36.021402 -115.246424 95 9624ft 269kts
28-Jul-17 14:31 36.015644 -115.160313 95 8841ft 241kts
28-Jul-17 14:32 36.010238 -115.079696 96 8091ft 245kts
28-Jul-17 14:33 36.005622 -115.001912 96 8052ft 244kts
28-Jul-17 14:34 36.016934 -114.928228 35 7671ft 246kts
28-Jul-17 14:35 36.072150 -114.887823 30 6747ft 229kts
28-Jul-17 14:36 36.124405 -114.903808 287 5128ft 236kts
28-Jul-17 14:37 36.111948 -114.975682 240 5036ft 217kts
28-Jul-17 14:38 36.080699 -115.023276 231 3927ft 165kts
28-Jul-17 14:39 36.073100 -115.074415 272 2719ft 153kts
28-Jul-17 14:40 36.073617 -115.127502 269 2144ft 155kts
28-Jul-17 14:41 36.074741 -115.150556 304 2119ft 0kts
28-Jul-17 14:42 36.074741 -115.150556 304 2119ft 0kts
28-Jul-17 14:43 36.077084 -115.152330 338 2119ft 27kts
28-Jul-17 14:44 36.078522 -115.148198 8 2119ft 17kts
28-Jul-17 14:45 36.080976 -115.147755 56 2119ft 0kts

Navigation Log

Ident Type
Flight plan parsing failed, navigation log unavailable